Chicopee, MA

7:47 PM EDT on July 24, 2017 (GMT -0400)
Westover Air Reserve Base / Metropolitan Airport

Weather History for KCEF - January, 2014

Change the Weather History Date:

Monday, January 6, 2014

  Actual Average Record
Temperature  
Mean Temperature 40 °F -  
Max Temperature 54 °F 32 °F 69 °F (2007)
Min Temperature 23 °F 18 °F -2 °F (1999)
Degree Days  
Heating Degree Days 26    
Moisture  
Dew Point 37 °F    
Average Humidity 98    
Maximum Humidity 100    
Minimum Humidity 61    
Precipitation  
Precipitation 1.05 in - - ()
Sea Level Pressure  
Sea Level Pressure 29.54 in    
Wind  
Wind Speed 6 mph (NE)    
Max Wind Speed 25 mph    
Max Gust Speed 45 mph    
Visibility 2 miles    
Events Fog , Rain , Snow    
Averages and records for this station are not official NWS values.
T = Trace of Precipitation, MM = Missing Value Source: NWS Daily Summary

Daily Weather History Graph

Daily Weather History Graph

Search for Another Location

Airport or City:

Trip Planner

Search our weather history database for the weather conditions in past years. The results will help you decide how hot, cold, wet, or windy it might be!

Date:

Astronomy

Jan. 06, 2014 Rise Set
Actual Time 7:18 AM EST 4:33 PM EST
Civil Twilight 6:47 AM EST 5:04 PM EST
Nautical Twilight 6:12 AM EST 5:40 PM EST
Astronomical Twilight 5:38 AM EST 6:13 PM EST
Moon 10:25 AM EST (1/6) 11:11 PM EST (1/6)
Length of Visible Light 10h 17m
Length of Day
9h 14m
Waxing Crescent, 34% of the Moon is Illuminated
Jan 6
Waxing Crescent
Jan 7
First Quarter
Jan 15
Full
Jan 24
Last Quarter
Jan 30
New

Hourly Weather History & Observations

Time (EST) Temp. Windchill Dew Point Humidity Pressure Visibility Wind Dir Wind Speed Gust Speed Precip Events Conditions
12:09 AM 32.0 °F 28.7 °F 32.0 °F 100% 29.84 in 2.0 mi NE 3.5 mph - N/A   Overcast
12:10 AM 32.0 °F 28.7 °F 32.0 °F 100% 29.84 in 2.5 mi NNE 3.5 mph - N/A   Overcast
12:15 AM 32.0 °F - 32.0 °F 100% 29.84 in 2.0 mi NNE 2.3 mph - N/A   Overcast
12:16 AM 32.0 °F 28.7 °F 32.0 °F 100% 29.83 in 2.0 mi NNE 3.5 mph - N/A   Light Drizzle
12:30 AM 32.0 °F 28.7 °F 32.0 °F 100% 29.82 in 2.0 mi North 3.5 mph - N/A   Overcast
12:31 AM 32.0 °F 28.7 °F 32.0 °F 100% 29.82 in 2.5 mi North 3.5 mph - N/A   Overcast
12:49 AM 32.0 °F 28.7 °F 32.0 °F 100% 29.81 in 2.0 mi ENE 3.5 mph - N/A   Overcast
12:58 AM 32.4 °F - 32.0 °F 99% 29.82 in 2.0 mi NE 2.3 mph - 0.00 in   Overcast
1:22 AM 32.0 °F - 32.0 °F 100% 29.78 in 2.5 mi NNW 2.3 mph - N/A   Overcast
1:27 AM 32.0 °F - 32.0 °F 100% 29.77 in 3.0 mi NNW 1.2 mph - N/A   Overcast
1:34 AM 32.0 °F 28.7 °F 32.0 °F 100% 29.76 in 2.5 mi NE 3.5 mph - N/A   Overcast
1:42 AM 32.0 °F - 32.0 °F 100% 29.75 in 2.0 mi NE 2.3 mph - N/A   Overcast
1:45 AM 32.0 °F - 32.0 °F 100% 29.74 in 2.0 mi NNE 2.3 mph - N/A   Overcast
1:47 AM 32.0 °F - 32.0 °F 100% 29.74 in 1.8 mi North 2.3 mph - N/A   Overcast
1:51 AM 32.0 °F - 32.0 °F 100% 29.73 in 1.5 mi North 2.3 mph - N/A Rain Light Rain
1:52 AM 32.0 °F - 32.0 °F 100% 29.73 in 1.5 mi North 2.3 mph - N/A Rain Light Rain
1:56 AM 32.0 °F - 32.0 °F 100% 29.73 in 1.5 mi North 1.2 mph - N/A Rain Light Rain
1:58 AM 32.0 °F - 32.0 °F 100% 29.76 in 1.2 mi Calm Calm - 0.00 in Rain Light Rain
2:06 AM 32.0 °F 27.5 °F 32.0 °F 100% 29.72 in 1.5 mi WNW 4.6 mph - N/A   Light Drizzle
2:07 AM 32.0 °F 27.5 °F 32.0 °F 100% 29.72 in 1.5 mi WNW 4.6 mph - N/A   Light Drizzle
2:11 AM 32.0 °F 25.6 °F 32.0 °F 100% 29.72 in 1.5 mi WNW 6.9 mph - N/A Rain Light Rain
2:13 AM 32.0 °F 25.6 °F 32.0 °F 100% 29.72 in 1.8 mi WNW 6.9 mph - N/A Rain Light Rain
2:17 AM 32.0 °F 26.4 °F 32.0 °F 100% 29.71 in 2.0 mi NNW 5.8 mph - N/A Rain Light Rain
2:20 AM 32.0 °F 28.7 °F 32.0 °F 100% 29.71 in 2.5 mi NNW 3.5 mph - N/A Rain Light Rain
2:23 AM 32.0 °F - 32.0 °F 100% 29.70 in 3.0 mi Variable 2.3 mph - N/A Rain Light Rain
2:26 AM 32.0 °F 28.7 °F 32.0 °F 100% 29.70 in 2.5 mi NE 3.5 mph - N/A Rain Light Rain
2:31 AM 32.0 °F 28.7 °F 32.0 °F 100% 29.69 in 2.0 mi NE 3.5 mph - N/A Rain Light Rain
2:58 AM 32.9 °F - 32.7 °F 99% 29.69 in 2.0 mi NNE 2.3 mph - 0.03 in Rain Light Rain
2:59 AM 32.0 °F - 32.0 °F 100% 29.66 in 1.8 mi NNE 2.3 mph - N/A Rain Light Rain
3:01 AM 32.0 °F - 32.0 °F 100% 29.67 in 1.5 mi Calm Calm - N/A Rain Light Rain
3:03 AM 32.0 °F - 32.0 °F 100% 29.66 in 1.5 mi Calm Calm - N/A Rain Light Rain
3:09 AM 32.0 °F 27.5 °F 32.0 °F 100% 29.67 in 1.5 mi WNW 4.6 mph - N/A Rain Light Rain
3:11 AM 32.0 °F 28.7 °F 32.0 °F 100% 29.66 in 1.8 mi WNW 3.5 mph - N/A Rain Light Rain
3:19 AM 32.0 °F 28.7 °F 32.0 °F 100% 29.65 in 1.5 mi NE 3.5 mph - N/A Rain Light Rain
3:20 AM 32.0 °F 28.7 °F 32.0 °F 100% 29.64 in 1.5 mi NE 3.5 mph - N/A Rain Light Rain
3:22 AM 32.0 °F - 32.0 °F 100% 29.65 in 1.2 mi NE 2.3 mph - N/A Rain Light Rain
3:25 AM 32.0 °F - 32.0 °F 100% 29.65 in 1.2 mi NE 2.3 mph - N/A Rain Light Rain
3:29 AM 32.0 °F 28.7 °F 32.0 °F 100% 29.64 in 1.2 mi ENE 3.5 mph - N/A Rain Light Rain
3:30 AM 33.8 °F 30.8 °F 32.0 °F 93% 29.63 in 1.2 mi ENE 3.5 mph - N/A Rain Rain
3:32 AM 33.8 °F 30.8 °F 32.0 °F 93% 29.63 in 1.0 mi ENE 3.5 mph - N/A Rain Rain
3:34 AM 32.0 °F 27.5 °F 32.0 °F 100% 29.63 in 1.0 mi NE 4.6 mph - N/A Rain Rain
3:40 AM 33.8 °F 29.6 °F 33.8 °F 100% 29.61 in 1.0 mi ENE 4.6 mph - N/A Rain Light Rain
3:42 AM 33.8 °F 29.6 °F 33.8 °F 100% 29.61 in 1.2 mi ENE 4.6 mph - N/A Rain Light Rain
3:43 AM 33.8 °F 29.6 °F 33.8 °F 100% 29.61 in 1.2 mi ENE 4.6 mph - N/A Rain Light Rain
3:44 AM 33.8 °F 30.8 °F 33.8 °F 100% 29.61 in 1.5 mi ENE 3.5 mph - N/A Rain Light Rain
3:45 AM 33.8 °F 30.8 °F 33.8 °F 100% 29.61 in 1.5 mi NE 3.5 mph - N/A Rain Light Rain
3:49 AM 33.8 °F 30.8 °F 33.8 °F 100% 29.61 in 1.5 mi Variable 3.5 mph - N/A Rain Light Rain
3:50 AM 35.6 °F 30.7 °F 33.8 °F 93% 29.62 in 1.8 mi Variable 5.8 mph - N/A Rain Light Rain
3:58 AM 34.2 °F 29.0 °F 33.8 °F 99% 29.64 in 1.8 mi WNW 5.8 mph - 0.23 in Rain Rain
3:59 AM 33.8 °F 28.6 °F 33.8 °F 100% 29.61 in 1.5 mi WNW 5.8 mph - N/A Rain Rain
4:02 AM 33.8 °F 28.6 °F 33.8 °F 100% 29.61 in 1.8 mi WNW 5.8 mph - N/A Rain Light Rain
4:06 AM 33.8 °F 28.6 °F 33.8 °F 100% 29.62 in 2.0 mi NW 5.8 mph - N/A Rain Light Rain
4:14 AM 35.6 °F - 33.8 °F 93% 29.61 in 1.8 mi NNW 2.3 mph - N/A Rain Light Rain
4:20 AM 35.6 °F - 33.8 °F 93% 29.61 in 1.5 mi Calm Calm - N/A Rain Light Rain
4:26 AM 33.8 °F - 33.8 °F 100% 29.61 in 1.5 mi ENE 2.3 mph - N/A   Light Drizzle
4:28 AM 33.8 °F - 33.8 °F 100% 29.60 in 1.2 mi East 2.3 mph - N/A   Light Drizzle
4:34 AM 33.8 °F - 33.8 °F 100% 29.60 in 1.2 mi NE 2.3 mph - N/A   Overcast
4:35 AM 33.8 °F - 33.8 °F 100% 29.60 in 1.5 mi NE 2.3 mph - N/A   Overcast
4:38 AM 33.8 °F - 33.8 °F 100% 29.60 in 1.5 mi NE 2.3 mph - N/A   Overcast
4:39 AM 33.8 °F - 33.8 °F 100% 29.60 in 1.5 mi NE 2.3 mph - N/A   Overcast
4:40 AM 33.8 °F - 33.8 °F 100% 29.60 in 1.8 mi NE 2.3 mph - N/A   Overcast
4:42 AM 33.8 °F 30.8 °F 33.8 °F 100% 29.60 in 1.5 mi NE 3.5 mph - N/A   Overcast
4:43 AM 33.8 °F 30.8 °F 33.8 °F 100% 29.60 in 1.5 mi NE 3.5 mph - N/A   Overcast
4:47 AM 33.8 °F 29.6 °F 33.8 °F 100% 29.59 in 1.2 mi ENE 4.6 mph - N/A   Overcast
4:54 AM 35.6 °F 31.7 °F 33.8 °F 93% 29.58 in 1.5 mi ENE 4.6 mph - N/A   Overcast
4:56 AM 35.6 °F 31.7 °F 35.6 °F 100% 29.58 in 1.5 mi ENE 4.6 mph - N/A   Overcast
4:57 AM 35.6 °F 31.7 °F 35.6 °F 100% 29.58 in 1.8 mi ENE 4.6 mph - N/A   Overcast
4:58 AM 35.6 °F 31.7 °F 35.6 °F 100% 29.61 in 1.8 mi ENE 4.6 mph - 0.03 in   Overcast
5:00 AM 35.6 °F 31.7 °F 35.6 °F 100% 29.58 in 2.0 mi NE 4.6 mph - N/A   Overcast
5:09 AM 33.8 °F 27.7 °F 33.8 °F 100% 29.57 in 1.8 mi ENE 6.9 mph - N/A   Overcast
5:12 AM 33.8 °F 27.7 °F 33.8 °F 100% 29.56 in 1.5 mi East 6.9 mph - N/A   Overcast
5:14 AM 35.6 °F 29.2 °F 33.8 °F 93% 29.55 in 1.5 mi East 8.1 mph - N/A   Overcast
5:16 AM 35.6 °F 29.2 °F 35.6 °F 100% 29.55 in 1.2 mi East 8.1 mph - N/A   Overcast
5:19 AM 37.4 °F 32.8 °F 37.4 °F 100% 29.55 in 1.2 mi East 5.8 mph - N/A   Overcast
5:21 AM 37.4 °F 33.8 °F 37.4 °F 100% 29.55 in 1.2 mi ENE 4.6 mph - N/A   Overcast
5:23 AM 39.2 °F 35.9 °F 39.2 °F 100% 29.55 in 1.2 mi Variable 4.6 mph - N/A   Overcast
5:24 AM 39.2 °F 37.0 °F 39.2 °F 100% 29.55 in 1.0 mi Variable 3.5 mph - N/A   Overcast
5:25 AM 39.2 °F - 39.2 °F 100% 29.55 in 1.0 mi Variable 2.3 mph - N/A   Overcast
5:28 AM 39.2 °F - 39.2 °F 100% 29.54 in 0.8 mi Variable 1.2 mph - N/A   Overcast
5:29 AM 39.2 °F - 37.4 °F 93% 29.54 in 0.8 mi Variable 2.3 mph - N/A   Overcast
5:40 AM 35.6 °F - 35.6 °F 100% 29.53 in 1.0 mi East 1.2 mph - N/A   Overcast
5:44 AM 35.6 °F - 35.6 °F 100% 29.54 in 0.8 mi Calm Calm - N/A   Overcast
5:47 AM 35.6 °F - 35.6 °F 100% 29.53 in 0.8 mi Calm Calm - N/A   Overcast
5:58 AM 35.6 °F 32.8 °F 35.6 °F 100% 29.56 in 0.8 mi NW 3.5 mph - 0.01 in   Mist
6:04 AM 35.6 °F 32.8 °F 35.6 °F 100% 29.52 in 1.0 mi NW 3.5 mph - N/A   Light Drizzle
6:06 AM 35.6 °F - 35.6 °F 100% 29.52 in 0.8 mi North 2.3 mph - N/A   Light Drizzle
6:14 AM 35.6 °F - 33.8 °F 93% 29.52 in 0.8 mi NNE 2.3 mph - N/A   Mist
6:38 AM 35.6 °F 32.8 °F 33.8 °F 93% 29.50 in 0.8 mi NE 3.5 mph - N/A   Light Drizzle
6:50 AM 35.6 °F 32.8 °F 35.6 °F 100% 29.49 in 0.8 mi ENE 3.5 mph - N/A   Mist
6:56 AM 35.6 °F - 35.6 °F 100% 29.48 in 0.5 mi Calm Calm - N/A Fog Fog
6:58 AM 35.6 °F - 35.4 °F 99% 29.51 in 0.5 mi NE 1.2 mph - 0.01 in Fog Fog
6:59 AM 35.6 °F - 35.6 °F 100% 29.48 in 0.5 mi NNE 1.2 mph - N/A Fog , Rain Light Rain
7:11 AM 33.8 °F - 33.8 °F 100% 29.46 in 0.5 mi NE 2.3 mph - N/A Fog Fog
7:14 AM 33.8 °F - 33.8 °F 100% 29.46 in 0.2 mi NE 2.3 mph - N/A Fog Fog
7:16 AM 33.8 °F - 33.8 °F 100% 29.46 in 0.2 mi NNE 2.3 mph - N/A Fog Light Drizzle
7:19 AM 33.8 °F - 33.8 °F 100% 29.46 in 0.2 mi NNE 2.3 mph - N/A Fog Light Drizzle
7:20 AM 33.8 °F - 33.8 °F 100% 29.46 in 0.2 mi NNE 2.3 mph - N/A Fog Light Drizzle
7:25 AM 33.8 °F - 33.8 °F 100% 29.45 in 0.2 mi Calm Calm - N/A Fog , Rain Light Rain
7:30 AM 33.8 °F - 33.8 °F 100% 29.45 in 0.2 mi Calm Calm - N/A Fog , Rain Light Rain
7:33 AM 33.8 °F - 33.8 °F 100% 29.45 in 0.2 mi Calm Calm - N/A Fog , Rain Light Rain
7:42 AM 33.8 °F - 33.8 °F 100% 29.44 in 0.2 mi NW 2.3 mph - N/A Fog , Rain Light Rain
7:56 AM 35.6 °F - 35.6 °F 100% 29.43 in 0.5 mi Calm Calm - N/A Fog , Rain Light Rain
7:58 AM 35.1 °F - 34.7 °F 99% 29.46 in 0.5 mi North - - 0.07 in Fog , Rain Light Rain
7:59 AM 35.6 °F - 35.6 °F 100% 29.43 in 0.5 mi North - - N/A Fog Fog
8:00 AM 35.6 °F - 35.6 °F 100% 29.43 in 0.5 mi NW 1.2 mph - N/A Fog Fog
8:04 AM 35.6 °F - 35.6 °F 100% 29.42 in 0.5 mi South 2.3 mph - N/A Fog Fog
8:05 AM 35.6 °F - 35.6 °F 100% 29.42 in 0.2 mi South 2.3 mph - N/A Fog Fog
8:08 AM 35.6 °F 30.7 °F 35.6 °F 100% 29.41 in 0.2 mi Variable 5.8 mph - N/A Fog Fog
8:09 AM 35.6 °F 29.9 °F 35.6 °F 100% 29.41 in 0.2 mi South 6.9 mph - N/A Fog Fog
8:10 AM 35.6 °F 29.9 °F 35.6 °F 100% 29.41 in 0.2 mi South 6.9 mph - N/A Fog Fog
8:12 AM 37.4 °F 31.4 °F 35.6 °F 93% 29.41 in 0.2 mi South 8.1 mph - N/A Fog Fog
8:13 AM 37.4 °F 30.8 °F 37.4 °F 100% 29.40 in 0.2 mi South 9.2 mph - N/A Fog Fog
8:14 AM 37.4 °F 30.3 °F 37.4 °F 100% 29.40 in 0.2 mi South 10.4 mph - N/A Fog Fog
8:15 AM 41.0 °F 34.3 °F 39.2 °F 93% 29.39 in 0.2 mi South 11.5 mph - N/A Fog Light Drizzle
8:17 AM 42.8 °F 36.6 °F 42.8 °F 100% 29.39 in 0.2 mi South 11.5 mph - N/A Fog Light Drizzle
8:18 AM 44.6 °F 38.8 °F 44.6 °F 100% 29.39 in 0.2 mi South 11.5 mph - N/A Fog Light Drizzle
8:22 AM 48.2 °F - 48.2 °F 100% 29.39 in 0.2 mi South 13.8 mph 18.4 mph N/A Fog Light Drizzle
8:26 AM 50.0 °F - 50.0 °F 100% 29.39 in 0.2 mi South 17.3 mph - N/A Fog Light Drizzle
8:27 AM 51.8 °F - 51.8 °F 100% 29.39 in 0.2 mi South 18.4 mph 26.5 mph N/A Fog Light Drizzle
8:28 AM 51.8 °F - 51.8 °F 100% 29.39 in 0.2 mi South 21.9 mph 32.2 mph N/A Fog Light Drizzle
8:29 AM 51.8 °F - 51.8 °F 100% 29.39 in 0.2 mi South 21.9 mph 32.2 mph N/A Fog Fog
8:30 AM 51.8 °F - 51.8 °F 100% 29.39 in 0.2 mi South 19.6 mph 32.2 mph N/A Fog Light Drizzle
8:31 AM 53.6 °F - 53.6 °F 100% 29.39 in 0.5 mi South 18.4 mph 32.2 mph N/A Fog , Rain Light Rain
8:32 AM 53.6 °F - 53.6 °F 100% 29.39 in 0.5 mi South 18.4 mph 32.2 mph N/A Fog , Rain Light Rain
8:33 AM 53.6 °F - 53.6 °F 100% 29.39 in 0.8 mi South 18.4 mph 32.2 mph N/A Rain Light Rain
8:34 AM 53.6 °F - 53.6 °F 100% 29.38 in 0.8 mi South 18.4 mph 32.2 mph N/A Rain Light Rain
8:36 AM 53.6 °F - 53.6 °F 100% 29.38 in 1.0 mi South 17.3 mph 32.2 mph N/A Rain Rain
8:37 AM 53.6 °F - 53.6 °F 100% 29.39 in 0.8 mi South 17.3 mph 32.2 mph N/A Rain Rain
8:38 AM 53.6 °F - 53.6 °F 100% 29.38 in 0.8 mi South 18.4 mph 32.2 mph N/A Rain Rain
8:40 AM 53.6 °F - 53.6 °F 100% 29.38 in 0.8 mi South 18.4 mph 26.5 mph N/A Rain Light Rain
8:41 AM 53.6 °F - 53.6 °F 100% 29.38 in 0.8 mi South 18.4 mph 26.5 mph N/A Rain Light Rain
8:42 AM 53.6 °F - 53.6 °F 100% 29.38 in 0.8 mi South 18.4 mph 26.5 mph N/A Rain Light Rain
8:44 AM 53.6 °F - 53.6 °F 100% 29.38 in 0.8 mi South 17.3 mph 26.5 mph N/A Rain Light Rain
8:45 AM 53.6 °F - 53.6 °F 100% 29.38 in 1.0 mi South 20.7 mph 31.1 mph N/A Rain Light Rain
8:46 AM 53.6 °F - 53.6 °F 100% 29.38 in 1.0 mi South 20.7 mph 31.1 mph N/A Rain Light Rain
8:47 AM 53.6 °F - 53.6 °F 100% 29.39 in 1.2 mi South 18.4 mph 31.1 mph N/A Rain Light Rain
8:48 AM 53.6 °F - 53.6 °F 100% 29.39 in 1.5 mi South 17.3 mph 31.1 mph N/A Rain Light Rain
8:52 AM 53.6 °F - 53.6 °F 100% 29.39 in 1.2 mi South 19.6 mph 31.1 mph N/A Rain Light Rain
8:55 AM 53.6 °F - 53.6 °F 100% 29.39 in 1.0 mi South 23.0 mph 31.1 mph N/A Rain Rain
8:56 AM 53.6 °F - 53.6 °F 100% 29.39 in 1.0 mi South 23.0 mph 28.8 mph N/A Rain Rain
8:57 AM 53.6 °F - 53.6 °F 100% 29.39 in 0.8 mi South 20.7 mph 28.8 mph N/A Rain Rain
8:58 AM 53.6 °F - 53.6 °F 100% 29.42 in 0.5 mi South 20.7 mph 28.8 mph 0.09 in Fog , Rain Rain
8:59 AM 53.6 °F - 53.6 °F 100% 29.38 in 0.5 mi South 21.9 mph 28.8 mph N/A Fog , Rain Rain
9:09 AM 53.6 °F - 53.6 °F 100% 29.38 in 0.5 mi South 20.7 mph 27.6 mph N/A Fog , Rain Rain
9:12 AM 53.6 °F - 53.6 °F 100% 29.38 in 5.0 mi South 18.4 mph 27.6 mph N/A Fog , Rain Rain
9:58 AM 54.5 °F - 54.5 °F 100% 29.37 in 6.0 mi South 19.6 mph 25.3 mph 0.15 in Fog , Rain Light Rain
10:58 AM 52.5 °F - 52.5 °F 100% 29.40 in 3.0 mi WSW 25.3 mph 44.9 mph 0.08 in Rain Light Rain
11:18 AM 46.4 °F 40.4 °F 46.4 °F 100% 29.37 in 2.0 mi WSW 13.8 mph - N/A Rain Rain
11:37 AM 46.4 °F 41.1 °F 46.4 °F 100% 29.36 in 7.0 mi SW 11.5 mph - N/A Rain Light Rain
11:58 AM 45.5 °F 41.3 °F 45.5 °F 100% 29.37 in 10.0 mi SSE 8.1 mph - 0.14 in Rain Light Rain
12:58 PM 44.8 °F 39.4 °F 44.8 °F 100% 29.34 in 10.0 mi SSW 10.4 mph - 0.00 in   Overcast
1:09 PM 44.6 °F 39.7 °F 44.6 °F 100% 29.33 in 7.0 mi South 9.2 mph - N/A Rain Light Rain
1:58 PM 42.4 °F 34.1 °F 42.3 °F 99% 29.38 in 2.5 mi SSW 18.4 mph - 0.11 in Rain Light Rain
2:22 PM 37.4 °F 27.5 °F 37.4 °F 100% 29.41 in 3.0 mi WNW 18.4 mph - N/A Rain , Snow Light Rain
2:51 PM 35.6 °F 28.0 °F 33.8 °F 93% 29.41 in 1.5 mi WNW 10.4 mph - N/A Snow Light Snow
2:58 PM 34.2 °F 26.8 °F 33.8 °F 99% 29.44 in 1.5 mi WNW 9.2 mph - 0.09 in Snow Light Snow
3:03 PM 33.8 °F 26.4 °F 32.0 °F 93% 29.43 in 2.5 mi West 9.2 mph - N/A Snow Light Snow
3:28 PM 33.8 °F 30.8 °F 32.0 °F 93% 29.40 in 4.0 mi North 3.5 mph - N/A Rain , Snow Light Rain
3:43 PM 33.8 °F 30.8 °F 33.8 °F 100% 29.40 in 7.0 mi NNW 3.5 mph - N/A   Mostly Cloudy
3:51 PM 33.8 °F 29.6 °F 32.0 °F 93% 29.42 in 10.0 mi NW 4.6 mph - N/A Rain Light Rain
3:54 PM 33.8 °F 30.8 °F 33.8 °F 100% 29.43 in 10.0 mi NW 3.5 mph - N/A   Overcast
3:58 PM 34.3 °F 30.2 °F 33.8 °F 98% 29.45 in 10.0 mi NNW 4.6 mph - 0.01 in   Overcast
4:58 PM 33.4 °F 23.9 °F 25.3 °F 72% 29.47 in 10.0 mi NW 13.8 mph 24.2 mph N/A   Overcast
5:58 PM 31.6 °F 19.3 °F 20.1 °F 62% 29.49 in 10.0 mi NW 20.7 mph 26.5 mph N/A   Overcast
6:58 PM 29.7 °F 17.1 °F 18.1 °F 62% 29.52 in 10.0 mi WNW 19.6 mph 26.5 mph N/A   Scattered Clouds
7:58 PM 28.6 °F 15.3 °F 16.7 °F 61% 29.54 in 10.0 mi WNW 20.7 mph - N/A   Clear
8:58 PM 27.5 °F 15.4 °F 16.0 °F 62% 29.57 in 10.0 mi WNW 16.1 mph - N/A   Clear
9:58 PM 26.2 °F 14.2 °F 14.7 °F 62% 29.57 in 10.0 mi NW 15.0 mph 18.4 mph N/A   Clear
10:58 PM 25.2 °F 17.3 °F 14.9 °F 65% 29.55 in 10.0 mi WNW 6.9 mph - N/A   Scattered Clouds
11:58 PM 23.9 °F 16.8 °F 16.0 °F 72% 29.57 in 10.0 mi WNW 5.8 mph - N/A   Mostly Cloudy